Time;durP1;ratioP1;P1;durP2;ratioP2;P2;SDS_P1;SDS_P2;PMS_P1;PMS_P2;Temp;Humidity;BMP_temperature;BMP_pressure;BME280_temperature;BME280_humidity;BME280_pressure;Samples;Min_cycle;Max_cycle;Signal;HPM_P1;HPM_P2
2022/04/05 00:01:12;;;;;;;4.53;2.63;;;;;;;1.02;85.76;98257.78;5101613;27;20035;-76
2022/04/05 00:03:37;;;;;;;3.30;2.13;;;;;;;1.03;86.28;98254.00;5101038;28;20035;-76
2022/04/05 00:06:03;;;;;;;2.45;1.80;;;;;;;1.05;86.23;98249.16;5094955;28;20122;-75
2022/04/05 00:08:29;;;;;;;2.70;1.65;;;;;;;1.06;86.43;98250.75;5094659;28;20127;-76
2022/04/05 00:10:54;;;;;;;3.08;2.55;;;;;;;1.06;86.48;98231.06;5106543;28;20093;-74
2022/04/05 00:13:20;;;;;;;2.50;2.25;;;;;;;1.01;86.67;98237.25;5112096;28;20040;-76
2022/04/05 00:15:46;;;;;;;3.38;1.80;;;;;;;0.98;86.73;98224.31;5105577;28;20038;-76
2022/04/05 00:18:12;;;;;;;2.33;1.90;;;;;;;1.00;86.72;98226.75;5115345;27;20046;-76
2022/04/05 00:20:38;;;;;;;2.60;1.95;;;;;;;1.00;87.04;98210.53;5105360;27;20474;-76
2022/04/05 00:23:03;;;;;;;2.10;1.90;;;;;;;1.03;86.81;98218.09;5122986;27;20118;-76
2022/04/05 00:25:29;;;;;;;3.20;2.05;;;;;;;1.02;86.97;98208.38;5091609;28;20032;-76
2022/04/05 00:27:55;;;;;;;3.25;2.47;;;;;;;0.98;87.18;98207.31;5105999;27;20051;-74
2022/04/05 00:30:21;;;;;;;2.38;2.10;;;;;;;0.98;87.11;98207.31;5118429;27;20039;-76
2022/04/05 00:32:47;;;;;;;4.05;2.60;;;;;;;0.95;86.96;98199.78;5107047;27;20046;-74
2022/04/05 00:35:13;;;;;;;3.28;2.50;;;;;;;0.95;87.11;98199.78;5115087;27;20043;-76
2022/04/05 00:37:38;;;;;;;2.70;2.47;;;;;;;0.93;87.31;98191.16;5095885;27;20044;-75
2022/04/05 00:40:05;;;;;;;3.45;2.35;;;;;;;0.92;87.18;98184.13;5125554;27;20122;-76
2022/04/05 00:42:32;;;;;;;2.80;2.28;;;;;;;0.93;87.39;98183.84;5097945;27;20058;-76
2022/04/05 00:44:58;;;;;;;2.53;1.88;;;;;;;0.92;87.29;98179.53;5119145;27;20138;-74
2022/04/05 00:47:24;;;;;;;3.20;2.17;;;;;;;0.93;86.92;98178.47;5098895;28;20134;-76
2022/04/05 00:49:52;;;;;;;3.00;2.70;;;;;;;0.97;87.09;98170.59;5099645;27;20512;-76
2022/04/05 00:52:19;;;;;;;5.43;2.60;;;;;;;0.94;87.12;98163.88;5111652;27;20068;-74
2022/04/05 00:54:47;;;;;;;3.28;2.63;;;;;;;0.93;87.29;98161.44;5113968;27;20041;-76
2022/04/05 00:57:15;;;;;;;2.88;2.35;;;;;;;0.92;87.00;98159.84;5125821;27;20042;-74
2022/04/05 00:59:42;;;;;;;2.58;2.38;;;;;;;0.92;87.09;98160.66;5073070;27;20058;-74
2022/04/05 01:02:13;;;;;;;4.30;2.28;;;;;;;0.92;86.85;98149.84;5112097;27;20520;-74
2022/04/05 01:04:41;;;;;;;2.10;1.60;;;;;;;0.93;86.98;98139.84;5104721;27;20594;-74
2022/04/05 01:07:10;;;;;;;2.30;2.10;;;;;;;0.93;87.27;98137.97;5111516;27;20778;-75
2022/04/05 01:09:37;;;;;;;4.82;2.58;;;;;;;0.88;87.30;98146.91;5128454;27;20088;-75
2022/04/05 01:12:05;;;;;;;3.05;2.63;;;;;;;0.84;87.67;98126.13;5089018;27;20528;-75
2022/04/05 01:14:31;;;;;;;2.30;2.10;;;;;;;0.83;88.26;98117.22;5116390;27;20071;-75
2022/04/05 01:16:56;;;;;;;3.13;2.20;;;;;;;0.86;88.06;98107.75;5111719;27;20518;-75
2022/04/05 01:19:22;;;;;;;2.45;2.25;;;;;;;0.87;87.95;98106.69;5101283;28;20036;-75
2022/04/05 01:21:48;;;;;;;2.40;2.20;;;;;;;0.82;87.83;98094.00;5110030;27;20075;-74
2022/04/05 01:24:14;;;;;;;3.28;2.53;;;;;;;0.81;88.27;98103.19;5084734;28;20490;-73
2022/04/05 01:26:46;;;;;;;2.83;2.55;;;;;;;0.76;88.68;98080.84;5092640;28;20494;-74
2022/04/05 01:29:12;;;;;;;2.40;2.20;;;;;;;0.69;88.71;98075.72;5109709;27;20070;-74
2022/04/05 01:31:38;;;;;;;4.22;2.25;;;;;;;0.70;89.01;98081.97;5098384;27;20039;-74
2022/04/05 01:34:04;;;;;;;2.63;2.42;;;;;;;0.71;88.99;98067.38;5124875;27;20265;-74
2022/04/05 01:36:30;;;;;;;2.42;2.15;;;;;;;0.72;88.91;98058.19;5111787;28;20146;-75
2022/04/05 01:38:55;;;;;;;4.72;2.03;;;;;;;0.68;89.58;98046.31;5098062;28;20027;-75
2022/04/05 01:41:21;;;;;;;2.65;1.75;;;;;;;0.65;89.15;98041.50;5076682;28;20043;-75
2022/04/05 01:43:47;;;;;;;3.42;2.60;;;;;;;0.60;89.15;98053.94;5111640;27;20126;-75
2022/04/05 01:46:12;;;;;;;4.43;1.98;;;;;;;0.58;89.45;98009.44;5107437;27;20440;-75
2022/04/05 01:48:39;;;;;;;3.58;2.67;;;;;;;0.58;90.02;98020.25;5109703;27;20172;-76
2022/04/05 01:51:06;;;;;;;3.35;2.40;;;;;;;0.57;89.25;98005.94;5098870;27;20036;-75
2022/04/05 01:53:32;;;;;;;3.40;2.80;;;;;;;0.55;89.63;98026.19;5082377;27;20040;-75
2022/04/05 01:55:57;;;;;;;3.08;2.30;;;;;;;0.56;89.86;98006.22;5118274;27;20118;-75
2022/04/05 01:58:24;;;;;;;4.35;2.67;;;;;;;0.58;89.61;98009.44;5108054;27;20063;-75
2022/04/05 02:00:51;;;;;;;3.38;2.60;;;;;;;0.59;89.89;97997.56;5115054;27;20128;-75
2022/04/05 02:03:17;;;;;;;4.82;3.15;;;;;;;0.62;89.41;98001.59;5098908;27;20072;-75
2022/04/05 02:05:46;;;;;;;5.32;2.72;;;;;;;0.62;89.26;97986.19;5078942;27;20517;-74
2022/04/05 02:08:13;;;;;;;3.40;2.60;;;;;;;0.63;89.77;97979.72;5119160;27;20118;-76
2022/04/05 02:10:38;;;;;;;5.72;2.90;;;;;;;0.64;89.75;97975.94;5102186;28;20082;-74
2022/04/05 02:13:04;;;;;;;5.25;3.03;;;;;;;0.64;89.27;97975.94;5069721;28;20046;-74
2022/04/05 02:15:34;;;;;;;5.50;3.53;;;;;;;0.64;89.06;97980.53;5100674;27;20040;-75
2022/04/05 02:18:04;;;;;;;6.40;3.20;;;;;;;0.66;88.78;97968.34;5101052;28;20505;-74
2022/04/05 02:20:31;;;;;;;4.88;3.40;;;;;;;0.68;88.94;97962.66;5070776;28;20046;-74
2022/04/05 02:22:57;;;;;;;6.68;3.70;;;;;;;0.69;88.70;97950.78;5099979;27;20043;-74
2022/04/05 02:25:48;;;;;;;4.82;3.67;;;;;;;0.67;88.71;97972.66;5095409;27;20056;-75
2022/04/05 02:28:17;;;;;;;;;;;;;;;0.67;88.49;97947.56;5062602;28;20498;-75
2022/04/05 02:30:49;;;;;;;4.40;3.42;;;;;;;0.67;88.70;97948.38;5084878;28;20420;-74
2022/04/05 02:33:18;;;;;;;;;;;;;;;0.65;88.64;97947.84;5095066;28;20138;-75
2022/04/05 02:35:44;;;;;;;3.97;3.22;;;;;;;0.67;88.68;97944.88;5093914;27;19923;-74
2022/04/05 02:38:11;;;;;;;4.68;3.45;;;;;;;0.67;88.25;97929.47;5083328;27;20035;-74
2022/04/05 02:40:41;;;;;;;4.13;2.80;;;;;;;0.70;88.22;97937.03;5084334;28;20063;-75
2022/04/05 02:43:09;;;;;;;2.20;2.00;;;;;;;0.69;88.68;97919.22;5087901;28;20638;-75
2022/04/05 02:45:35;;;;;;;7.95;3.53;;;;;;;0.68;88.63;97923.00;5049722;27;20043;-75
2022/04/05 02:48:01;;;;;;;2.78;1.80;;;;;;;0.64;89.02;97911.16;5097538;28;20142;-75
2022/04/05 02:50:29;;;;;;;4.97;3.17;;;;;;;0.65;88.47;97907.38;5068596;28;20051;-75
2022/04/05 02:52:57;;;;;;;5.32;4.30;;;;;;;0.68;89.02;97901.41;5069769;28;20127;-74
2022/04/05 02:55:23;;;;;;;4.00;3.67;;;;;;;0.67;89.03;97905.19;5113330;27;20119;-75
2022/04/05 02:57:52;;;;;;;5.00;3.80;;;;;;;0.67;88.80;97885.50;5079258;27;20036;-74
2022/04/05 03:00:28;;;;;;;5.00;4.05;;;;;;;0.63;89.07;97896.06;5106008;28;20065;-74
2022/04/05 03:02:53;;;;;;;5.45;4.03;;;;;;;0.60;88.65;97875.84;5102296;27;20042;-74
2022/04/05 03:05:22;;;;;;;3.30;2.80;;;;;;;0.61;89.11;97873.97;5075671;28;20509;-74
2022/04/05 03:07:52;;;;;;;5.47;4.70;;;;;;;0.65;89.30;97872.28;5102680;27;20045;-74
2022/04/05 03:10:18;;;;;;;4.13;3.38;;;;;;;0.63;88.73;97863.69;5075878;27;20117;-73
2022/04/05 03:12:48;;;;;;;5.25;3.78;;;;;;;0.65;89.36;97821.03;5099593;27;20130;-75
2022/04/05 03:15:14;;;;;;;6.05;4.07;;;;;;;0.63;89.19;97854.78;5099246;28;20036;-75
2022/04/05 03:17:42;;;;;;;6.32;4.28;;;;;;;0.63;89.06;97850.19;5073015;27;20107;-75
2022/04/05 03:20:12;;;;;;;4.95;4.28;;;;;;;0.61;89.37;97844.28;5101709;28;20062;-73
2022/04/05 03:22:42;;;;;;;5.78;4.00;;;;;;;0.60;89.43;97848.06;5103696;27;20559;-74
2022/04/05 03:25:09;;;;;;;6.70;4.68;;;;;;;0.57;89.63;97825.16;5116869;27;20048;-74
2022/04/05 03:27:42;;;;;;;7.93;4.97;;;;;;;0.53;90.04;97826.81;5084115;27;20465;-74
2022/04/05 03:30:13;;;;;;;7.40;6.05;;;;;;;0.49;89.83;97827.66;5101168;27;20035;-74
2022/04/05 03:32:39;;;;;;;6.53;3.78;;;;;;;0.46;90.24;97830.94;5100853;28;20395;-74
2022/04/05 03:35:06;;;;;;;7.75;5.78;;;;;;;0.42;90.43;97827.19;5094427;28;20057;-75
2022/04/05 03:37:32;;;;;;;7.95;5.43;;;;;;;0.41;90.39;97817.50;5110322;27;20041;-74
2022/04/05 03:39:59;;;;;;;6.03;5.40;;;;;;;0.40;90.17;97819.38;5097192;27;20039;-74
2022/04/05 03:42:26;;;;;;;7.07;5.97;;;;;;;0.38;90.37;97820.78;5082142;28;20070;-74
2022/04/05 03:44:51;;;;;;;8.10;5.88;;;;;;;0.37;90.42;97809.19;5089832;28;20078;-74
2022/04/05 03:47:17;;;;;;;6.07;5.03;;;;;;;0.34;90.61;97809.72;5077509;28;20035;-75
2022/04/05 03:49:43;;;;;;;5.95;5.35;;;;;;;0.30;90.78;97804.09;5065179;27;20044;-74
2022/04/05 03:52:09;;;;;;;7.80;5.13;;;;;;;0.26;90.68;97813.03;5076188;27;20051;-74
2022/04/05 03:54:36;;;;;;;7.45;4.47;;;;;;;0.20;91.04;97773.75;5090615;28;20074;-74
2022/04/05 03:57:20;;;;;;;6.55;5.38;;;;;;;0.13;91.12;97782.13;5114755;27;20513;-74
2022/04/05 03:59:48;;;;;;;8.50;6.43;;;;;;;0.07;91.32;97758.22;5103459;27;20035;-75
2022/04/05 04:02:14;;;;;;;6.43;4.85;;;;;;;0.04;91.44;97780.34;5090312;28;20093;-76
2022/04/05 04:04:41;;;;;;;7.10;5.22;;;;;;;0.02;91.70;97775.25;5095040;28;20054;-73
2022/04/05 04:07:07;;;;;;;6.65;5.47;;;;;;;-0.02;92.01;97768.78;5083863;28;20066;-75
2022/04/05 04:09:33;;;;;;;6.13;4.78;;;;;;;-0.03;91.90;97764.47;5089301;28;20044;-75
2022/04/05 04:11:59;;;;;;;7.65;5.70;;;;;;;-0.06;92.37;97757.78;5086931;28;20071;-75
2022/04/05 04:14:26;;;;;;;6.28;3.88;;;;;;;-0.10;92.28;97747.84;5103771;28;20043;-74
2022/04/05 04:16:51;;;;;;;6.30;5.65;;;;;;;-0.12;92.57;97750.81;5107533;28;20387;-74
2022/04/05 04:19:18;;;;;;;6.85;4.45;;;;;;;-0.18;92.22;97733.06;5085256;28;20039;-74
2022/04/05 04:21:44;;;;;;;6.70;4.45;;;;;;;-0.18;92.49;97730.38;5075549;28;20123;-73
2022/04/05 04:24:10;;;;;;;9.65;5.93;;;;;;;-0.18;93.02;97734.97;5100312;28;20044;-74
2022/04/05 04:26:36;;;;;;;8.55;5.88;;;;;;;-0.21;93.07;97722.88;5087481;28;20135;-75
2022/04/05 04:29:04;;;;;;;14.68;6.93;;;;;;;-0.23;92.89;97721.53;5107911;28;20131;-75
2022/04/05 04:31:30;;;;;;;7.63;5.00;;;;;;;-0.24;92.92;97711.84;5099827;28;20523;-75
2022/04/05 04:33:56;;;;;;;8.15;6.13;;;;;;;-0.28;93.58;97710.81;5107409;28;20156;-75
2022/04/05 04:36:21;;;;;;;7.72;5.40;;;;;;;-0.26;93.87;97724.81;5091253;28;20063;-75
2022/04/05 04:38:48;;;;;;;7.35;6.57;;;;;;;-0.33;93.89;97707.09;5073081;28;20063;-75
2022/04/05 04:41:14;;;;;;;7.75;5.97;;;;;;;-0.35;93.85;97700.34;5079015;28;20036;-75
2022/04/05 04:43:39;;;;;;;8.55;5.70;;;;;;;-0.32;93.48;97699.81;5108737;28;20051;-75
2022/04/05 04:46:05;;;;;;;7.85;5.43;;;;;;;-0.33;93.99;97698.19;5087404;28;20036;-75
2022/04/05 04:48:31;;;;;;;6.47;5.55;;;;;;;-0.31;93.30;97688.75;5091283;28;20035;-75
2022/04/05 04:50:56;;;;;;;6.72;5.53;;;;;;;-0.30;93.30;97662.59;5099195;28;20032;-75
2022/04/05 04:53:22;;;;;;;10.88;6.10;;;;;;;-0.29;93.79;97682.25;5098338;28;20069;-75
2022/04/05 04:55:48;;;;;;;10.18;6.13;;;;;;;-0.28;93.82;97660.44;5103216;28;20031;-75
2022/04/05 04:58:14;;;;;;;6.68;5.60;;;;;;;-0.31;93.81;97679.84;5105387;28;20039;-75
2022/04/05 05:00:39;;;;;;;8.48;7.38;;;;;;;-0.33;93.58;97677.44;5097815;28;20043;-74
2022/04/05 05:03:05;;;;;;;10.32;5.00;;;;;;;-0.36;93.35;97667.22;5111663;28;20058;-75
2022/04/05 05:05:31;;;;;;;9.35;6.90;;;;;;;-0.39;93.55;97661.59;5113060;27;20043;-74
2022/04/05 05:07:56;;;;;;;10.57;6.78;;;;;;;-0.38;93.82;97661.31;5101308;28;20044;-74
2022/04/05 05:10:23;;;;;;;8.13;5.47;;;;;;;-0.38;93.43;97658.63;5117430;27;20043;-75
2022/04/05 05:12:49;;;;;;;10.13;7.18;;;;;;;-0.36;93.50;97636.78;5105076;27;20410;-75
2022/04/05 05:15:21;;;;;;;7.50;6.18;;;;;;;-0.38;93.15;97666.69;5108602;27;20486;-75
2022/04/05 05:17:47;;;;;;;9.93;5.65;;;;;;;-0.38;93.34;97639.75;5105752;27;20168;-75
2022/04/05 05:20:14;;;;;;;11.82;7.57;;;;;;;-0.37;94.00;97638.66;5100310;27;20078;-75
2022/04/05 05:22:40;;;;;;;4.55;3.25;;;;;;;-0.40;93.50;97646.53;5093553;28;20131;-73
2022/04/05 05:25:07;;;;;;;4.82;3.67;;;;;;;-0.40;93.71;97625.78;5098453;28;20127;-76
2022/04/05 05:27:32;;;;;;;0.98;0.73;;;;;;;-0.37;93.45;97622.50;5106652;27;20422;-75
2022/04/05 05:29:58;;;;;;;8.80;6.53;;;;;;;-0.35;93.91;97628.44;5114640;27;20027;-75
2022/04/05 05:32:24;;;;;;;7.78;4.40;;;;;;;-0.32;93.53;97627.88;5091318;27;20615;-75
2022/04/05 05:34:49;;;;;;;9.35;5.68;;;;;;;-0.33;93.47;97612.78;5081487;28;20051;-74
2022/04/05 05:37:15;;;;;;;7.75;5.55;;;;;;;-0.35;94.14;97617.66;5107138;27;20130;-74
2022/04/05 05:39:40;;;;;;;10.57;7.30;;;;;;;-0.36;93.88;97607.16;5100940;28;20506;-74
2022/04/05 05:42:07;;;;;;;9.80;8.00;;;;;;;-0.36;94.25;97610.63;5104520;27;20493;-76
2022/04/05 05:44:33;;;;;;;9.13;6.63;;;;;;;-0.37;94.31;97598.25;5108453;27;20043;-76
2022/04/05 05:46:59;;;;;;;8.82;7.05;;;;;;;-0.37;94.08;97592.88;5111990;27;20410;-75
2022/04/05 05:49:25;;;;;;;10.50;7.22;;;;;;;-0.34;94.38;97605.00;5094195;28;20043;-75
2022/04/05 05:51:50;;;;;;;8.38;6.78;;;;;;;-0.35;94.01;97577.25;5110000;27;20043;-75
2022/04/05 05:54:17;;;;;;;12.48;8.80;;;;;;;-0.35;93.92;97576.44;5126797;27;20039;-75
2022/04/05 05:56:43;;;;;;;10.73;8.43;;;;;;;-0.38;93.91;97575.09;5120725;27;20035;-75
2022/04/05 05:59:09;;;;;;;10.73;7.10;;;;;;;-0.40;94.09;97571.91;5092246;28;20066;-75
2022/04/05 06:01:34;;;;;;;10.05;7.57;;;;;;;-0.37;94.02;97560.53;5108654;27;20035;-74
2022/04/05 06:04:00;;;;;;;11.82;9.05;;;;;;;-0.38;94.63;97577.81;5088505;27;20520;-74
2022/04/05 06:06:28;;;;;;;12.00;8.55;;;;;;;-0.39;94.31;97562.72;5122473;27;20472;-75
2022/04/05 06:08:55;;;;;;;11.88;7.93;;;;;;;-0.38;94.00;97564.34;5101327;27;20031;-74
2022/04/05 06:11:24;;;;;;;11.35;7.47;;;;;;;-0.37;94.10;97565.94;5098359;28;20035;-74
2022/04/05 06:13:50;;;;;;;10.10;8.10;;;;;;;-0.35;94.24;97565.66;5115111;27;20078;-74
2022/04/05 06:16:16;;;;;;;11.00;7.80;;;;;;;-0.35;94.09;97561.09;5118374;27;20064;-75
2022/04/05 06:18:42;;;;;;;10.50;8.70;;;;;;;-0.32;94.11;97555.13;5105198;28;20152;-76
2022/04/05 06:21:08;;;;;;;10.00;6.93;;;;;;;-0.32;94.23;97520.09;5101644;28;20050;-76
2022/04/05 06:23:34;;;;;;;11.65;8.52;;;;;;;-0.29;94.47;97534.88;5081975;27;20048;-75
2022/04/05 06:26:00;;;;;;;12.40;8.60;;;;;;;-0.28;94.76;97527.59;5106068;27;20059;-76
2022/04/05 06:28:25;;;;;;;11.82;8.88;;;;;;;-0.26;94.73;97522.72;5096720;27;20213;-75
2022/04/05 06:30:51;;;;;;;9.48;6.75;;;;;;;-0.27;94.49;97518.44;5112993;27;20480;-75
2022/04/05 06:33:20;;;;;;;9.88;8.07;;;;;;;-0.23;94.44;97524.84;5121697;27;20054;-75
2022/04/05 06:35:46;;;;;;;;;;;;;;;-0.20;94.72;97530.47;5115587;27;20059;-75
2022/04/05 06:38:13;;;;;;;12.32;10.00;;;;;;;-0.17;94.10;97513.75;5111451;27;19920;-75
2022/04/05 06:40:41;;;;;;;11.10;8.02;;;;;;;-0.17;94.15;97512.94;5098456;27;20037;-75
2022/04/05 06:43:07;;;;;;;12.93;8.98;;;;;;;-0.20;94.62;97516.19;5100660;27;20569;-75
2022/04/05 06:45:32;;;;;;;10.70;7.35;;;;;;;-0.19;94.25;97515.09;5103612;28;20130;-74
2022/04/05 06:47:58;;;;;;;10.63;8.10;;;;;;;-0.17;94.32;97510.25;5128583;27;20067;-74
2022/04/05 06:50:24;;;;;;;10.07;7.53;;;;;;;-0.13;94.55;97509.38;5119802;27;20042;-74
2022/04/05 06:52:57;;;;;;;11.38;9.25;;;;;;;-0.11;94.54;97506.38;5082932;28;20052;-74
2022/04/05 06:55:24;;;;;;;11.07;6.68;;;;;;;-0.12;94.57;97510.16;5118149;27;20039;-75
2022/04/05 06:57:50;;;;;;;10.93;8.85;;;;;;;-0.14;94.13;97497.00;5095476;27;20432;-75
2022/04/05 07:00:18;;;;;;;12.25;10.10;;;;;;;-0.15;94.46;97516.16;5126079;27;20046;-74
2022/04/05 07:02:44;;;;;;;12.95;8.02;;;;;;;-0.17;94.70;97486.78;5093552;27;20038;-75
2022/04/05 07:05:10;;;;;;;12.52;9.30;;;;;;;-0.14;94.77;97480.03;5097318;28;20444;-75
2022/04/05 07:07:38;;;;;;;8.45;5.78;;;;;;;-0.13;94.48;97495.09;5125660;27;20505;-75
2022/04/05 07:10:05;;;;;;;12.52;9.63;;;;;;;-0.12;94.85;97488.63;5114851;27;20031;-75
2022/04/05 07:12:31;;;;;;;11.65;8.68;;;;;;;-0.10;94.80;97486.44;5083128;28;20036;-75
2022/04/05 07:14:57;;;;;;;12.70;10.20;;;;;;;-0.09;94.17;97483.44;5102036;27;20047;-75
2022/04/05 07:17:22;;;;;;;11.13;8.13;;;;;;;-0.11;94.35;97479.44;5090596;28;20383;-74
2022/04/05 07:19:48;;;;;;;12.23;9.85;;;;;;;-0.08;94.18;97468.06;5119151;27;20047;-74
2022/04/05 07:22:14;;;;;;;14.00;10.68;;;;;;;-0.09;94.33;97464.56;5124112;27;20039;-76
2022/04/05 07:24:39;;;;;;;12.60;8.88;;;;;;;-0.07;94.08;97464.28;5100295;27;20486;-75
2022/04/05 07:27:05;;;;;;;12.52;9.00;;;;;;;-0.05;94.00;97459.41;5106494;27;20056;-75
2022/04/05 07:29:30;;;;;;;12.98;8.90;;;;;;;-0.01;93.80;97463.13;5124699;27;20039;-75
2022/04/05 07:31:56;;;;;;;11.38;9.68;;;;;;;0.04;93.47;97438.81;5085487;27;20458;-75
2022/04/05 07:34:22;;;;;;;12.00;8.93;;;;;;;0.12;93.80;97457.00;5124762;27;20182;-75
2022/04/05 07:36:47;;;;;;;15.00;9.50;;;;;;;0.09;93.55;97446.81;5101828;28;20035;-75
2022/04/05 07:39:13;;;;;;;11.02;8.88;;;;;;;0.10;93.41;97434.13;5125301;27;20035;-75
2022/04/05 07:41:38;;;;;;;12.50;9.63;;;;;;;0.12;93.30;97431.94;5113708;27;20039;-74
2022/04/05 07:44:05;;;;;;;9.30;6.18;;;;;;;0.13;93.38;97423.56;5123242;27;20460;-74
2022/04/05 07:46:30;;;;;;;11.45;8.65;;;;;;;0.16;93.62;97439.16;5120207;27;20039;-75
2022/04/05 07:48:56;;;;;;;11.70;9.15;;;;;;;0.17;93.44;97427.28;5109488;27;20039;-73
2022/04/05 07:51:22;;;;;;;17.40;12.07;;;;;;;0.16;93.58;97431.06;5120572;27;20039;-75
2022/04/05 07:53:47;;;;;;;12.30;10.88;;;;;;;0.12;93.88;97421.97;5128041;27;20121;-74
2022/04/05 07:56:13;;;;;;;9.60;7.05;;;;;;;0.10;93.15;97426.84;5116921;27;20039;-73
2022/04/05 07:58:40;;;;;;;11.38;9.15;;;;;;;0.12;93.60;97418.47;5113167;27;20062;-75
2022/04/05 08:01:05;;;;;;;12.05;10.88;;;;;;;0.12;93.35;97407.69;5099287;28;20572;-75
2022/04/05 08:03:31;;;;;;;13.48;9.18;;;;;;;0.12;92.97;97413.88;5119697;27;20040;-73
2022/04/05 08:05:57;;;;;;;14.15;10.15;;;;;;;0.16;93.04;97414.88;5106666;27;20030;-75
2022/04/05 08:08:22;;;;;;;13.02;11.63;;;;;;;0.16;92.92;97385.22;5122232;27;20031;-74
2022/04/05 08:10:48;;;;;;;13.63;8.77;;;;;;;0.20;92.80;97388.16;5089021;28;20128;-76
2022/04/05 08:13:13;;;;;;;11.52;9.27;;;;;;;0.25;92.94;97391.56;5107967;28;20087;-77
2022/04/05 08:15:41;;;;;;;12.70;10.73;;;;;;;0.28;92.81;97382.88;5125231;28;20070;-76
2022/04/05 08:18:08;;;;;;;11.45;6.72;;;;;;;0.29;92.75;97381.78;5095907;28;20031;-74
2022/04/05 08:20:36;;;;;;;14.52;10.82;;;;;;;0.37;92.29;97382.25;5117482;28;20114;-75
2022/04/05 08:23:03;;;;;;;12.60;9.70;;;;;;;0.43;92.39;97397.22;5107559;28;20132;-75
2022/04/05 08:25:29;;;;;;;13.85;10.20;;;;;;;0.48;92.29;97383.66;5092036;28;20031;-75
2022/04/05 08:27:54;;;;;;;12.55;11.02;;;;;;;0.52;92.51;97380.09;5090645;28;20057;-75
2022/04/05 08:30:20;;;;;;;11.32;10.13;;;;;;;0.49;92.26;97361.78;5104997;28;20101;-75
2022/04/05 08:32:47;;;;;;;14.05;10.60;;;;;;;0.53;91.65;97373.59;5120089;28;20193;-75
2022/04/05 08:35:15;;;;;;;8.73;7.88;;;;;;;0.58;91.85;97351.13;5086931;28;20036;-75
2022/04/05 08:37:41;;;;;;;12.93;11.20;;;;;;;0.55;91.64;97368.69;5102025;27;20036;-75
2022/04/05 08:40:07;;;;;;;13.43;10.40;;;;;;;0.56;91.72;97364.09;5114512;27;20038;-74
2022/04/05 08:42:34;;;;;;;14.55;10.68;;;;;;;0.60;91.20;97375.91;5125808;27;20526;-74
2022/04/05 08:45:07;;;;;;;12.75;8.48;;;;;;;0.61;91.12;97374.78;5093108;28;20422;-74
2022/04/05 08:47:46;;;;;;;12.82;8.38;;;;;;;0.69;90.79;97357.91;5110241;27;20039;-74
2022/04/05 08:50:14;;;;;;;12.10;10.13;;;;;;;0.70;90.24;97351.44;5120141;27;20035;-76
2022/04/05 08:52:39;;;;;;;12.70;10.07;;;;;;;0.75;90.77;97353.25;5124499;27;20047;-76
2022/04/05 08:55:05;;;;;;;10.02;6.60;;;;;;;0.75;90.22;97345.94;5127003;27;20039;-76
2022/04/05 08:57:31;;;;;;;14.65;11.75;;;;;;;0.76;90.28;97357.53;5112257;27;20505;-76
2022/04/05 08:59:56;;;;;;;12.15;10.02;;;;;;;0.77;89.88;97353.75;5112860;28;20099;-75
2022/04/05 09:02:26;;;;;;;5.07;3.72;;;;;;;0.77;89.78;97338.34;5121422;27;20039;-76
2022/04/05 09:04:52;;;;;;;13.80;11.02;;;;;;;0.77;90.27;97348.34;5095710;28;20044;-76
2022/04/05 09:07:31;;;;;;;17.35;10.35;;;;;;;0.72;90.43;97346.53;5092471;28;20031;-76
2022/04/05 09:10:10;;;;;;;12.32;9.73;;;;;;;0.77;90.17;97348.34;5107113;27;20049;-75
2022/04/05 09:12:54;;;;;;;14.40;10.65;;;;;;;0.84;89.80;97324.44;5107441;28;20043;-75
2022/04/05 09:15:20;;;;;;;14.43;10.57;;;;;;;0.85;89.90;97321.44;5099566;28;20046;-76
2022/04/05 09:17:46;;;;;;;13.88;9.95;;;;;;;0.83;89.85;97330.94;5101874;27;20032;-76
2022/04/05 09:20:13;;;;;;;13.35;10.13;;;;;;;0.83;89.97;97318.25;5101533;27;20087;-77
2022/04/05 09:22:39;;;;;;;13.85;12.00;;;;;;;0.87;90.02;97340.06;5127004;27;20035;-74
2022/04/05 09:25:06;;;;;;;12.48;10.27;;;;;;;0.90;90.01;97342.97;5120781;27;20456;-76
2022/04/05 09:27:54;;;;;;;10.18;8.85;;;;;;;0.92;89.35;97320.28;5112285;27;20043;-75
2022/04/05 09:30:29;;;;;;;10.63;9.00;;;;;;;0.94;89.26;97320.78;5102616;27;20642;-74
2022/04/05 09:32:55;;;;;;;11.48;9.25;;;;;;;0.96;89.71;97313.16;5107997;27;20122;-73
2022/04/05 09:35:27;;;;;;;11.68;10.23;;;;;;;0.93;89.32;97340.75;5118304;27;20459;-73
2022/04/05 09:38:09;;;;;;;12.05;9.40;;;;;;;0.87;88.92;97338.19;5109622;27;20465;-74
2022/04/05 09:40:35;;;;;;;11.00;9.70;;;;;;;0.88;89.73;97353.28;5106619;28;20035;-74
2022/04/05 09:43:10;;;;;;;13.15;8.98;;;;;;;0.85;89.90;97329.53;5104513;27;20052;-74
2022/04/05 09:45:53;;;;;;;11.32;9.05;;;;;;;0.86;89.91;97335.75;5120042;27;20032;-78
2022/04/05 09:48:22;;;;;;;11.90;8.82;;;;;;;0.89;90.08;97325.19;5112085;27;20051;-73
2022/04/05 09:51:16;;;;;;;15.82;10.52;;;;;;;0.90;90.01;97299.78;5102804;27;20531;-73
2022/04/05 09:53:47;;;;;;;10.65;9.02;;;;;;;0.87;89.52;97330.06;5110394;27;20050;-74
2022/04/05 09:56:15;;;;;;;14.23;9.88;;;;;;;0.85;89.57;97326.84;5082000;27;20035;-74
2022/04/05 09:58:50;;;;;;;11.68;10.00;;;;;;;0.86;89.90;97331.16;5082661;28;20039;-73
2022/04/05 10:01:17;;;;;;;15.60;10.80;;;;;;;0.89;90.48;97349.47;5115475;27;20032;-74
2022/04/05 10:03:55;;;;;;;11.90;8.70;;;;;;;0.91;90.77;97322.16;5095009;28;20035;-74
2022/04/05 10:06:21;;;;;;;13.15;10.50;;;;;;;0.92;90.68;97328.38;5081609;27;20635;-74
2022/04/05 10:08:46;;;;;;;12.07;8.48;;;;;;;0.94;90.78;97299.97;5118877;27;20060;-73
2022/04/05 10:11:13;;;;;;;12.50;9.65;;;;;;;1.04;90.54;97317.84;5099364;27;20072;-73
2022/04/05 10:13:39;;;;;;;13.57;9.50;;;;;;;1.06;91.16;97318.38;5074338;28;20101;-74
2022/04/05 10:16:05;;;;;;;13.70;9.15;;;;;;;1.10;90.85;97289.66;5092496;28;20515;-74
2022/04/05 10:18:35;;;;;;;11.75;9.90;;;;;;;1.14;90.94;97309.56;5074600;28;20046;-74
2022/04/05 10:21:03;;;;;;;12.95;10.70;;;;;;;1.11;90.30;97304.78;5074223;28;20051;-74
2022/04/05 10:23:29;;;;;;;4.35;3.75;;;;;;;1.07;90.20;97320.78;5125958;27;20039;-74
2022/04/05 10:25:55;;;;;;;13.73;9.48;;;;;;;1.09;90.48;97328.56;5132730;27;20038;-74
2022/04/05 10:28:31;;;;;;;9.65;7.47;;;;;;;1.07;90.47;97309.97;5115029;27;20106;-74
2022/04/05 10:31:19;;;;;;;8.18;7.20;;;;;;;1.08;90.19;97313.47;5133250;27;20046;-74
2022/04/05 10:34:07;;;;;;;10.63;8.10;;;;;;;1.04;90.33;97315.16;5132630;27;20047;-73
2022/04/05 10:36:32;;;;;;;13.40;10.38;;;;;;;1.01;90.86;97331.97;5132953;27;20063;-73
2022/04/05 10:39:15;;;;;;;11.38;8.93;;;;;;;0.97;90.88;97314.75;5132879;27;20035;-74
2022/04/05 10:41:42;;;;;;;10.27;7.07;;;;;;;0.94;90.78;97309.97;5092472;28;20074;-73
2022/04/05 10:44:16;;;;;;;7.28;6.43;;;;;;;0.93;91.18;97319.16;5112454;28;20043;-73
2022/04/05 10:46:51;;;;;;;11.70;9.13;;;;;;;0.92;90.72;97318.38;5094008;28;20032;-73
2022/04/05 10:49:39;;;;;;;10.95;9.52;;;;;;;0.92;91.24;97312.97;5060293;28;20032;-73
2022/04/05 10:52:07;;;;;;;10.93;8.15;;;;;;;0.88;90.98;97317.38;5112153;28;20126;-73
2022/04/05 10:54:48;;;;;;;10.60;8.27;;;;;;;0.86;91.03;97312.25;5112119;28;20467;-74
2022/04/05 10:57:26;;;;;;;9.52;7.20;;;;;;;0.83;91.55;97310.16;5089903;28;20035;-73
2022/04/05 11:00:12;;;;;;;8.43;7.53;;;;;;;0.85;91.63;97326.06;5056687;28;20101;-73
2022/04/05 11:02:45;;;;;;;9.05;7.60;;;;;;;0.78;91.77;97302.16;5091767;28;20032;-72
2022/04/05 11:05:14;;;;;;;6.53;5.90;;;;;;;0.77;92.03;97295.16;5073298;28;20043;-74
2022/04/05 11:07:52;;;;;;;9.73;8.02;;;;;;;0.80;92.09;97299.16;5091918;28;20044;-75
2022/04/05 11:10:21;;;;;;;9.40;7.15;;;;;;;0.81;92.06;97304.25;5073298;28;20048;-75
2022/04/05 11:12:47;;;;;;;;;;;;;;;0.82;92.65;97296.97;5092229;28;20120;-74
2022/04/05 11:15:14;;;;;;;9.18;7.63;;;;;;;0.84;92.50;97300.97;5088593;28;20364;-74
2022/04/05 11:17:41;;;;;;;10.50;6.80;;;;;;;0.84;92.43;97311.75;5110568;27;20041;-74
2022/04/05 11:20:08;;;;;;;9.10;6.97;;;;;;;0.85;92.92;97302.56;5116796;27;20035;-74
2022/04/05 11:22:36;;;;;;;10.27;8.60;;;;;;;0.85;92.87;97296.38;5104953;28;20035;-73
2022/04/05 11:25:05;;;;;;;7.35;6.50;;;;;;;0.85;92.80;97305.25;5109431;27;20048;-74
2022/04/05 11:27:30;;;;;;;8.80;6.90;;;;;;;0.84;92.73;97303.66;5105811;28;20053;-73
2022/04/05 11:30:21;;;;;;;8.18;6.65;;;;;;;0.85;92.82;97309.84;5097078;28;20038;-74
2022/04/05 11:33:20;;;;;;;7.10;6.03;;;;;;;0.84;92.88;97300.97;5117873;28;20134;-74
2022/04/05 11:35:50;;;;;;;7.47;6.70;;;;;;;0.86;92.58;97314.94;5114176;28;20038;-74
2022/04/05 11:38:19;;;;;;;6.40;4.53;;;;;;;0.81;92.85;97296.16;5119022;28;20063;-74
2022/04/05 11:40:46;;;;;;;6.77;6.03;;;;;;;0.83;92.97;97272.38;5120595;28;20039;-73